sensor_id;sensor_type;location;lat;lon;timestamp;P1;durP1;ratioP1;P2;durP2;ratioP2
76761;SDS011;65705;51.032;13.790;2023-01-20T00:00:38;15.18;;;7.70;;
76761;SDS011;65705;51.032;13.790;2023-01-20T00:03:04;14.73;;;7.75;;
76761;SDS011;65705;51.032;13.790;2023-01-20T00:05:29;13.80;;;7.22;;
76761;SDS011;65705;51.032;13.790;2023-01-20T00:07:55;13.57;;;7.35;;
76761;SDS011;65705;51.032;13.790;2023-01-20T00:10:21;14.10;;;6.68;;
76761;SDS011;65705;51.032;13.790;2023-01-20T00:12:47;15.27;;;7.72;;
76761;SDS011;65705;51.032;13.790;2023-01-20T00:15:12;12.55;;;7.20;;
76761;SDS011;65705;51.032;13.790;2023-01-20T00:17:38;13.00;;;7.13;;
76761;SDS011;65705;51.032;13.790;2023-01-20T00:20:04;14.35;;;7.55;;
76761;SDS011;65705;51.032;13.790;2023-01-20T00:22:30;17.83;;;8.27;;
76761;SDS011;65705;51.032;13.790;2023-01-20T00:24:55;12.48;;;6.63;;
76761;SDS011;65705;51.032;13.790;2023-01-20T00:27:21;14.05;;;6.28;;
76761;SDS011;65705;51.032;13.790;2023-01-20T00:29:47;12.82;;;7.20;;
76761;SDS011;65705;51.032;13.790;2023-01-20T00:32:13;11.77;;;6.32;;
76761;SDS011;65705;51.032;13.790;2023-01-20T00:34:38;14.35;;;7.55;;
76761;SDS011;65705;51.032;13.790;2023-01-20T00:37:04;14.65;;;6.72;;
76761;SDS011;65705;51.032;13.790;2023-01-20T00:39:29;16.85;;;8.18;;
76761;SDS011;65705;51.032;13.790;2023-01-20T00:41:55;14.95;;;7.75;;
76761;SDS011;65705;51.032;13.790;2023-01-20T00:44:21;17.02;;;7.63;;
76761;SDS011;65705;51.032;13.790;2023-01-20T00:46:47;13.48;;;7.45;;
76761;SDS011;65705;51.032;13.790;2023-01-20T00:49:12;14.15;;;6.90;;
76761;SDS011;65705;51.032;13.790;2023-01-20T00:51:38;18.80;;;7.70;;
76761;SDS011;65705;51.032;13.790;2023-01-20T00:54:04;16.95;;;7.13;;
76761;SDS011;65705;51.032;13.790;2023-01-20T00:56:29;14.95;;;7.75;;
76761;SDS011;65705;51.032;13.790;2023-01-20T00:59:10;15.00;;;6.70;;
76761;SDS011;65705;51.032;13.790;2023-01-20T01:01:36;13.90;;;6.93;;
76761;SDS011;65705;51.032;13.790;2023-01-20T01:04:01;13.85;;;7.38;;
76761;SDS011;65705;51.032;13.790;2023-01-20T01:06:27;14.98;;;7.30;;
76761;SDS011;65705;51.032;13.790;2023-01-20T01:08:53;14.38;;;7.25;;
76761;SDS011;65705;51.032;13.790;2023-01-20T01:11:19;13.85;;;7.03;;
76761;SDS011;65705;51.032;13.790;2023-01-20T01:13:44;15.88;;;7.07;;
76761;SDS011;65705;51.032;13.790;2023-01-20T01:16:11;13.25;;;6.75;;
76761;SDS011;65705;51.032;13.790;2023-01-20T01:18:38;12.15;;;6.47;;
76761;SDS011;65705;51.032;13.790;2023-01-20T01:21:09;16.52;;;7.68;;
76761;SDS011;65705;51.032;13.790;2023-01-20T01:23:36;15.90;;;7.47;;
76761;SDS011;65705;51.032;13.790;2023-01-20T01:26:02;16.63;;;7.45;;
76761;SDS011;65705;51.032;13.790;2023-01-20T01:28:28;16.42;;;8.05;;
76761;SDS011;65705;51.032;13.790;2023-01-20T01:30:54;15.75;;;6.60;;
76761;SDS011;65705;51.032;13.790;2023-01-20T01:33:20;16.52;;;7.13;;
76761;SDS011;65705;51.032;13.790;2023-01-20T01:35:55;14.65;;;7.78;;
76761;SDS011;65705;51.032;13.790;2023-01-20T01:38:22;14.68;;;7.50;;
76761;SDS011;65705;51.032;13.790;2023-01-20T01:40:48;13.00;;;7.30;;
76761;SDS011;65705;51.032;13.790;2023-01-20T01:43:25;13.57;;;6.88;;
76761;SDS011;65705;51.032;13.790;2023-01-20T01:45:53;15.77;;;7.20;;
76761;SDS011;65705;51.032;13.790;2023-01-20T01:48:20;16.63;;;7.53;;
76761;SDS011;65705;51.032;13.790;2023-01-20T01:50:53;16.08;;;7.65;;
76761;SDS011;65705;51.032;13.790;2023-01-20T01:53:22;12.90;;;7.53;;
76761;SDS011;65705;51.032;13.790;2023-01-20T01:56:13;14.43;;;7.03;;
76761;SDS011;65705;51.032;13.790;2023-01-20T01:58:41;14.40;;;6.38;;
76761;SDS011;65705;51.032;13.790;2023-01-20T02:03:39;13.00;;;6.60;;
76761;SDS011;65705;51.032;13.790;2023-01-20T02:06:12;15.02;;;7.30;;
76761;SDS011;65705;51.032;13.790;2023-01-20T02:08:40;14.07;;;6.60;;
76761;SDS011;65705;51.032;13.790;2023-01-20T02:11:06;14.10;;;7.50;;
76761;SDS011;65705;51.032;13.790;2023-01-20T02:13:32;13.18;;;6.95;;
76761;SDS011;65705;51.032;13.790;2023-01-20T02:16:19;14.18;;;7.07;;
76761;SDS011;65705;51.032;13.790;2023-01-20T02:18:51;12.90;;;7.10;;
76761;SDS011;65705;51.032;13.790;2023-01-20T02:21:33;11.95;;;6.93;;
76761;SDS011;65705;51.032;13.790;2023-01-20T02:35:32;14.15;;;7.80;;
76761;SDS011;65705;51.032;13.790;2023-01-20T02:45:56;20.45;;;8.40;;
76761;SDS011;65705;51.032;13.790;2023-01-20T02:48:31;15.05;;;8.20;;
76761;SDS011;65705;51.032;13.790;2023-01-20T02:51:25;17.38;;;9.60;;
76761;SDS011;65705;51.032;13.790;2023-01-20T02:54:04;16.33;;;8.82;;
76761;SDS011;65705;51.032;13.790;2023-01-20T02:56:33;17.30;;;8.27;;
76761;SDS011;65705;51.032;13.790;2023-01-20T02:59:05;17.38;;;9.88;;
76761;SDS011;65705;51.032;13.790;2023-01-20T03:01:36;17.80;;;9.38;;
76761;SDS011;65705;51.032;13.790;2023-01-20T03:04:36;19.15;;;9.18;;
76761;SDS011;65705;51.032;13.790;2023-01-20T03:07:12;16.13;;;9.05;;
76761;SDS011;65705;51.032;13.790;2023-01-20T03:09:40;16.10;;;9.13;;
76761;SDS011;65705;51.032;13.790;2023-01-20T03:12:16;14.60;;;8.23;;
76761;SDS011;65705;51.032;13.790;2023-01-20T03:17:13;16.13;;;9.23;;
76761;SDS011;65705;51.032;13.790;2023-01-20T03:19:39;17.33;;;8.70;;
76761;SDS011;65705;51.032;13.790;2023-01-20T03:22:04;18.23;;;8.60;;
76761;SDS011;65705;51.032;13.790;2023-01-20T03:24:31;17.30;;;9.00;;
76761;SDS011;65705;51.032;13.790;2023-01-20T03:26:58;17.45;;;8.82;;
76761;SDS011;65705;51.032;13.790;2023-01-20T03:29:24;15.40;;;8.68;;
76761;SDS011;65705;51.032;13.790;2023-01-20T03:31:51;16.38;;;9.10;;
76761;SDS011;65705;51.032;13.790;2023-01-20T03:34:20;19.75;;;8.85;;
76761;SDS011;65705;51.032;13.790;2023-01-20T03:36:48;17.42;;;9.40;;
76761;SDS011;65705;51.032;13.790;2023-01-20T03:39:14;25.92;;;10.48;;
76761;SDS011;65705;51.032;13.790;2023-01-20T03:52:00;17.30;;;9.95;;
76761;SDS011;65705;51.032;13.790;2023-01-20T03:55:05;20.23;;;10.30;;
76761;SDS011;65705;51.032;13.790;2023-01-20T03:57:28;21.27;;;9.90;;
76761;SDS011;65705;51.032;13.790;2023-01-20T03:59:59;18.80;;;9.23;;
76761;SDS011;65705;51.032;13.790;2023-01-20T04:02:37;17.02;;;8.73;;
76761;SDS011;65705;51.032;13.790;2023-01-20T04:05:05;17.63;;;9.60;;
76761;SDS011;65705;51.032;13.790;2023-01-20T04:07:32;17.77;;;9.82;;
76761;SDS011;65705;51.032;13.790;2023-01-20T04:10:00;14.95;;;8.88;;
76761;SDS011;65705;51.032;13.790;2023-01-20T04:12:31;16.85;;;9.75;;
76761;SDS011;65705;51.032;13.790;2023-01-20T04:14:57;19.63;;;9.75;;
76761;SDS011;65705;51.032;13.790;2023-01-20T04:17:26;16.90;;;9.38;;
76761;SDS011;65705;51.032;13.790;2023-01-20T04:19:53;16.00;;;8.63;;
76761;SDS011;65705;51.032;13.790;2023-01-20T04:22:23;18.98;;;10.40;;
76761;SDS011;65705;51.032;13.790;2023-01-20T04:24:58;15.63;;;8.75;;
76761;SDS011;65705;51.032;13.790;2023-01-20T04:27:29;19.95;;;9.90;;
76761;SDS011;65705;51.032;13.790;2023-01-20T04:29:55;19.58;;;9.07;;
76761;SDS011;65705;51.032;13.790;2023-01-20T04:32:20;20.40;;;10.40;;
76761;SDS011;65705;51.032;13.790;2023-01-20T04:34:48;20.42;;;9.80;;
76761;SDS011;65705;51.032;13.790;2023-01-20T04:37:16;22.35;;;10.50;;
76761;SDS011;65705;51.032;13.790;2023-01-20T04:39:41;23.95;;;10.07;;
76761;SDS011;65705;51.032;13.790;2023-01-20T04:42:08;17.08;;;9.13;;
76761;SDS011;65705;51.032;13.790;2023-01-20T04:44:35;20.42;;;9.60;;
76761;SDS011;65705;51.032;13.790;2023-01-20T04:47:00;24.15;;;10.23;;
76761;SDS011;65705;51.032;13.790;2023-01-20T04:49:26;19.92;;;11.90;;
76761;SDS011;65705;51.032;13.790;2023-01-20T04:51:52;20.42;;;11.00;;
76761;SDS011;65705;51.032;13.790;2023-01-20T04:54:18;16.70;;;9.93;;
76761;SDS011;65705;51.032;13.790;2023-01-20T04:56:43;19.02;;;10.43;;
76761;SDS011;65705;51.032;13.790;2023-01-20T04:59:09;23.23;;;10.82;;
76761;SDS011;65705;51.032;13.790;2023-01-20T05:01:35;23.60;;;10.40;;
76761;SDS011;65705;51.032;13.790;2023-01-20T05:04:00;18.40;;;10.40;;
76761;SDS011;65705;51.032;13.790;2023-01-20T05:06:26;20.60;;;10.43;;
76761;SDS011;65705;51.032;13.790;2023-01-20T05:08:52;20.23;;;9.88;;
76761;SDS011;65705;51.032;13.790;2023-01-20T05:11:17;18.20;;;10.73;;
76761;SDS011;65705;51.032;13.790;2023-01-20T05:13:43;19.85;;;11.00;;
76761;SDS011;65705;51.032;13.790;2023-01-20T05:16:09;18.20;;;11.13;;
76761;SDS011;65705;51.032;13.790;2023-01-20T05:18:35;18.08;;;10.68;;
76761;SDS011;65705;51.032;13.790;2023-01-20T05:21:02;19.63;;;11.02;;
76761;SDS011;65705;51.032;13.790;2023-01-20T05:23:28;20.23;;;9.52;;
76761;SDS011;65705;51.032;13.790;2023-01-20T05:25:54;20.13;;;11.35;;
76761;SDS011;65705;51.032;13.790;2023-01-20T05:28:20;20.42;;;11.25;;
76761;SDS011;65705;51.032;13.790;2023-01-20T05:30:45;22.73;;;10.85;;
76761;SDS011;65705;51.032;13.790;2023-01-20T05:33:12;21.15;;;10.93;;
76761;SDS011;65705;51.032;13.790;2023-01-20T05:35:38;20.63;;;10.65;;
76761;SDS011;65705;51.032;13.790;2023-01-20T05:38:04;20.23;;;10.77;;
76761;SDS011;65705;51.032;13.790;2023-01-20T05:40:30;20.73;;;9.57;;
76761;SDS011;65705;51.032;13.790;2023-01-20T05:42:59;21.70;;;11.45;;
76761;SDS011;65705;51.032;13.790;2023-01-20T05:45:25;19.42;;;10.52;;
76761;SDS011;65705;51.032;13.790;2023-01-20T05:47:54;20.88;;;10.68;;
76761;SDS011;65705;51.032;13.790;2023-01-20T05:50:20;21.20;;;10.90;;
76761;SDS011;65705;51.032;13.790;2023-01-20T05:52:46;21.38;;;11.32;;
76761;SDS011;65705;51.032;13.790;2023-01-20T05:55:12;22.70;;;11.80;;
76761;SDS011;65705;51.032;13.790;2023-01-20T05:57:38;21.85;;;10.85;;
76761;SDS011;65705;51.032;13.790;2023-01-20T06:00:04;26.10;;;11.82;;
76761;SDS011;65705;51.032;13.790;2023-01-20T06:02:30;22.38;;;12.05;;
76761;SDS011;65705;51.032;13.790;2023-01-20T06:04:56;23.88;;;11.30;;
76761;SDS011;65705;51.032;13.790;2023-01-20T06:07:26;20.27;;;11.45;;
76761;SDS011;65705;51.032;13.790;2023-01-20T06:09:55;25.02;;;10.52;;
76761;SDS011;65705;51.032;13.790;2023-01-20T06:12:21;22.40;;;12.32;;
76761;SDS011;65705;51.032;13.790;2023-01-20T06:14:47;23.38;;;12.15;;
76761;SDS011;65705;51.032;13.790;2023-01-20T06:17:13;23.00;;;11.82;;
76761;SDS011;65705;51.032;13.790;2023-01-20T06:19:39;22.70;;;11.73;;
76761;SDS011;65705;51.032;13.790;2023-01-20T06:22:05;20.30;;;10.55;;
76761;SDS011;65705;51.032;13.790;2023-01-20T06:24:32;23.42;;;11.70;;
76761;SDS011;65705;51.032;13.790;2023-01-20T06:26:58;25.55;;;11.95;;
76761;SDS011;65705;51.032;13.790;2023-01-20T06:29:23;20.95;;;11.55;;
76761;SDS011;65705;51.032;13.790;2023-01-20T06:31:50;22.77;;;11.95;;
76761;SDS011;65705;51.032;13.790;2023-01-20T06:34:15;23.80;;;11.63;;
76761;SDS011;65705;51.032;13.790;2023-01-20T06:36:41;23.63;;;11.95;;
76761;SDS011;65705;51.032;13.790;2023-01-20T06:39:07;27.33;;;12.20;;
76761;SDS011;65705;51.032;13.790;2023-01-20T06:41:32;26.27;;;12.77;;
76761;SDS011;65705;51.032;13.790;2023-01-20T06:43:58;21.40;;;11.35;;
76761;SDS011;65705;51.032;13.790;2023-01-20T06:46:24;23.70;;;12.23;;
76761;SDS011;65705;51.032;13.790;2023-01-20T06:48:55;23.70;;;12.88;;
76761;SDS011;65705;51.032;13.790;2023-01-20T06:51:25;27.08;;;12.57;;
76761;SDS011;65705;51.032;13.790;2023-01-20T06:53:52;29.45;;;13.65;;
76761;SDS011;65705;51.032;13.790;2023-01-20T06:56:18;23.50;;;12.60;;
76761;SDS011;65705;51.032;13.790;2023-01-20T06:58:44;29.92;;;12.57;;
76761;SDS011;65705;51.032;13.790;2023-01-20T07:01:11;21.75;;;12.45;;
76761;SDS011;65705;51.032;13.790;2023-01-20T07:03:43;25.52;;;13.23;;
76761;SDS011;65705;51.032;13.790;2023-01-20T07:06:28;25.33;;;12.30;;
76761;SDS011;65705;51.032;13.790;2023-01-20T07:09:04;26.83;;;12.52;;
76761;SDS011;65705;51.032;13.790;2023-01-20T07:11:35;26.17;;;13.38;;
76761;SDS011;65705;51.032;13.790;2023-01-20T07:14:02;26.02;;;12.23;;
76761;SDS011;65705;51.032;13.790;2023-01-20T07:16:29;24.67;;;12.60;;
76761;SDS011;65705;51.032;13.790;2023-01-20T07:18:55;24.38;;;12.75;;
76761;SDS011;65705;51.032;13.790;2023-01-20T07:21:21;26.52;;;11.90;;
76761;SDS011;65705;51.032;13.790;2023-01-20T07:23:47;22.48;;;12.35;;
76761;SDS011;65705;51.032;13.790;2023-01-20T07:26:18;31.08;;;13.60;;
76761;SDS011;65705;51.032;13.790;2023-01-20T07:28:45;28.65;;;13.93;;
76761;SDS011;65705;51.032;13.790;2023-01-20T07:31:16;25.95;;;13.43;;
76761;SDS011;65705;51.032;13.790;2023-01-20T07:33:44;23.98;;;12.48;;
76761;SDS011;65705;51.032;13.790;2023-01-20T07:36:10;22.65;;;12.80;;
76761;SDS011;65705;51.032;13.790;2023-01-20T07:38:37;20.30;;;11.52;;
76761;SDS011;65705;51.032;13.790;2023-01-20T07:41:04;25.80;;;13.43;;
76761;SDS011;65705;51.032;13.790;2023-01-20T07:43:32;25.15;;;12.82;;
76761;SDS011;65705;51.032;13.790;2023-01-20T07:45:59;24.10;;;12.27;;
76761;SDS011;65705;51.032;13.790;2023-01-20T07:48:26;26.50;;;13.57;;
76761;SDS011;65705;51.032;13.790;2023-01-20T07:50:56;20.80;;;12.27;;
76761;SDS011;65705;51.032;13.790;2023-01-20T07:53:30;25.92;;;12.90;;
76761;SDS011;65705;51.032;13.790;2023-01-20T07:56:00;23.20;;;12.60;;
76761;SDS011;65705;51.032;13.790;2023-01-20T07:58:31;26.13;;;12.40;;
76761;SDS011;65705;51.032;13.790;2023-01-20T08:01:04;21.90;;;11.73;;
76761;SDS011;65705;51.032;13.790;2023-01-20T08:03:34;26.95;;;12.15;;
76761;SDS011;65705;51.032;13.790;2023-01-20T08:06:01;24.00;;;12.15;;
76761;SDS011;65705;51.032;13.790;2023-01-20T08:08:28;25.17;;;10.65;;
76761;SDS011;65705;51.032;13.790;2023-01-20T08:10:55;26.33;;;12.00;;
76761;SDS011;65705;51.032;13.790;2023-01-20T08:13:22;22.05;;;10.68;;
76761;SDS011;65705;51.032;13.790;2023-01-20T08:15:48;27.23;;;12.13;;
76761;SDS011;65705;51.032;13.790;2023-01-20T08:18:13;27.65;;;12.30;;
76761;SDS011;65705;51.032;13.790;2023-01-20T08:20:39;25.55;;;11.20;;
76761;SDS011;65705;51.032;13.790;2023-01-20T08:23:05;28.55;;;11.90;;
76761;SDS011;65705;51.032;13.790;2023-01-20T08:25:31;26.90;;;12.57;;
76761;SDS011;65705;51.032;13.790;2023-01-20T08:27:57;22.67;;;12.82;;
76761;SDS011;65705;51.032;13.790;2023-01-20T08:30:22;26.08;;;10.98;;
76761;SDS011;65705;51.032;13.790;2023-01-20T08:32:48;22.70;;;10.52;;
76761;SDS011;65705;51.032;13.790;2023-01-20T08:35:14;26.38;;;12.13;;
76761;SDS011;65705;51.032;13.790;2023-01-20T08:37:40;47.72;;;21.90;;
76761;SDS011;65705;51.032;13.790;2023-01-20T08:40:06;53.67;;;26.17;;
76761;SDS011;65705;51.032;13.790;2023-01-20T08:42:35;38.65;;;18.25;;
76761;SDS011;65705;51.032;13.790;2023-01-20T08:45:02;32.28;;;15.88;;
76761;SDS011;65705;51.032;13.790;2023-01-20T08:47:30;25.30;;;12.50;;
76761;SDS011;65705;51.032;13.790;2023-01-20T08:49:55;23.65;;;12.73;;
76761;SDS011;65705;51.032;13.790;2023-01-20T08:52:21;24.55;;;11.02;;
76761;SDS011;65705;51.032;13.790;2023-01-20T08:54:50;24.80;;;12.23;;
76761;SDS011;65705;51.032;13.790;2023-01-20T08:57:17;22.33;;;11.07;;
76761;SDS011;65705;51.032;13.790;2023-01-20T08:59:43;27.48;;;12.32;;
76761;SDS011;65705;51.032;13.790;2023-01-20T09:02:11;27.02;;;11.90;;
76761;SDS011;65705;51.032;13.790;2023-01-20T09:04:36;29.88;;;12.80;;
76761;SDS011;65705;51.032;13.790;2023-01-20T09:07:02;28.02;;;11.85;;
76761;SDS011;65705;51.032;13.790;2023-01-20T09:09:29;26.77;;;12.45;;
76761;SDS011;65705;51.032;13.790;2023-01-20T09:11:54;29.98;;;12.00;;
76761;SDS011;65705;51.032;13.790;2023-01-20T09:14:21;27.08;;;12.13;;
76761;SDS011;65705;51.032;13.790;2023-01-20T09:16:48;28.65;;;11.18;;
76761;SDS011;65705;51.032;13.790;2023-01-20T09:19:14;22.38;;;10.23;;
76761;SDS011;65705;51.032;13.790;2023-01-20T09:21:40;30.48;;;11.35;;
76761;SDS011;65705;51.032;13.790;2023-01-20T09:24:06;26.63;;;10.95;;
76761;SDS011;65705;51.032;13.790;2023-01-20T09:26:32;25.40;;;10.73;;
76761;SDS011;65705;51.032;13.790;2023-01-20T09:29:03;27.98;;;11.00;;
76761;SDS011;65705;51.032;13.790;2023-01-20T09:31:35;26.02;;;10.95;;
76761;SDS011;65705;51.032;13.790;2023-01-20T09:34:08;27.65;;;12.07;;
76761;SDS011;65705;51.032;13.790;2023-01-20T09:36:35;24.60;;;12.02;;
76761;SDS011;65705;51.032;13.790;2023-01-20T09:39:01;24.58;;;12.30;;
76761;SDS011;65705;51.032;13.790;2023-01-20T09:41:48;32.45;;;10.77;;
76761;SDS011;65705;51.032;13.790;2023-01-20T09:47:29;24.45;;;11.95;;
76761;SDS011;65705;51.032;13.790;2023-01-20T09:52:56;24.20;;;10.35;;
76761;SDS011;65705;51.032;13.790;2023-01-20T09:58:31;24.75;;;11.05;;
76761;SDS011;65705;51.032;13.790;2023-01-20T10:06:46;27.70;;;11.73;;
76761;SDS011;65705;51.032;13.790;2023-01-20T10:14:46;24.30;;;11.55;;
76761;SDS011;65705;51.032;13.790;2023-01-20T10:17:23;28.42;;;11.85;;
76761;SDS011;65705;51.032;13.790;2023-01-20T10:20:20;23.33;;;10.93;;
76761;SDS011;65705;51.032;13.790;2023-01-20T10:28:05;25.50;;;10.30;;
76761;SDS011;65705;51.032;13.790;2023-01-20T10:30:38;26.73;;;11.25;;
76761;SDS011;65705;51.032;13.790;2023-01-20T10:33:07;21.00;;;10.82;;
76761;SDS011;65705;51.032;13.790;2023-01-20T10:35:55;24.20;;;11.15;;
76761;SDS011;65705;51.032;13.790;2023-01-20T10:43:31;29.23;;;10.88;;
76761;SDS011;65705;51.032;13.790;2023-01-20T10:48:37;25.38;;;11.65;;
76761;SDS011;65705;51.032;13.790;2023-01-20T10:53:51;28.70;;;11.35;;
76761;SDS011;65705;51.032;13.790;2023-01-20T10:58:53;32.42;;;12.27;;
76761;SDS011;65705;51.032;13.790;2023-01-20T11:01:21;29.52;;;11.43;;
76761;SDS011;65705;51.032;13.790;2023-01-20T11:03:47;30.77;;;12.10;;
76761;SDS011;65705;51.032;13.790;2023-01-20T11:06:25;30.00;;;10.98;;
76761;SDS011;65705;51.032;13.790;2023-01-20T11:08:51;26.05;;;11.93;;
76761;SDS011;65705;51.032;13.790;2023-01-20T11:11:21;28.15;;;12.40;;
76761;SDS011;65705;51.032;13.790;2023-01-20T11:13:49;31.20;;;12.38;;
76761;SDS011;65705;51.032;13.790;2023-01-20T11:16:18;31.42;;;12.32;;
76761;SDS011;65705;51.032;13.790;2023-01-20T11:21:29;27.58;;;12.45;;
76761;SDS011;65705;51.032;13.790;2023-01-20T11:23:58;34.40;;;12.82;;
76761;SDS011;65705;51.032;13.790;2023-01-20T11:26:25;28.02;;;11.98;;
76761;SDS011;65705;51.032;13.790;2023-01-20T11:28:56;34.72;;;13.25;;
76761;SDS011;65705;51.032;13.790;2023-01-20T11:31:51;37.85;;;13.68;;
76761;SDS011;65705;51.032;13.790;2023-01-20T11:34:20;29.30;;;13.43;;
76761;SDS011;65705;51.032;13.790;2023-01-20T11:39:36;29.40;;;14.30;;
76761;SDS011;65705;51.032;13.790;2023-01-20T11:44:40;27.05;;;12.80;;
76761;SDS011;65705;51.032;13.790;2023-01-20T11:55:12;32.38;;;13.55;;
76761;SDS011;65705;51.032;13.790;2023-01-20T11:57:38;35.53;;;14.70;;
76761;SDS011;65705;51.032;13.790;2023-01-20T12:02:55;29.35;;;13.18;;
76761;SDS011;65705;51.032;13.790;2023-01-20T12:05:33;27.77;;;13.07;;
76761;SDS011;65705;51.032;13.790;2023-01-20T12:08:00;29.50;;;13.90;;
76761;SDS011;65705;51.032;13.790;2023-01-20T12:10:29;36.22;;;14.77;;
76761;SDS011;65705;51.032;13.790;2023-01-20T12:13:03;33.42;;;14.88;;
76761;SDS011;65705;51.032;13.790;2023-01-20T12:15:43;27.67;;;13.98;;
76761;SDS011;65705;51.032;13.790;2023-01-20T12:21:16;32.50;;;14.10;;
76761;SDS011;65705;51.032;13.790;2023-01-20T12:23:47;44.70;;;19.05;;
76761;SDS011;65705;51.032;13.790;2023-01-20T12:26:16;35.33;;;15.00;;
76761;SDS011;65705;51.032;13.790;2023-01-20T12:31:21;46.08;;;16.55;;
76761;SDS011;65705;51.032;13.790;2023-01-20T12:33:49;39.72;;;14.05;;
76761;SDS011;65705;51.032;13.790;2023-01-20T12:39:40;31.75;;;14.60;;
76761;SDS011;65705;51.032;13.790;2023-01-20T12:44:55;34.35;;;14.38;;
76761;SDS011;65705;51.032;13.790;2023-01-20T13:18:00;38.60;;;16.08;;
76761;SDS011;65705;51.032;13.790;2023-01-20T13:20:46;33.10;;;16.02;;
76761;SDS011;65705;51.032;13.790;2023-01-20T13:23:14;37.10;;;15.95;;
76761;SDS011;65705;51.032;13.790;2023-01-20T13:25:43;43.50;;;17.88;;
76761;SDS011;65705;51.032;13.790;2023-01-20T13:28:18;38.47;;;17.85;;
76761;SDS011;65705;51.032;13.790;2023-01-20T13:30:46;44.35;;;18.42;;
76761;SDS011;65705;51.032;13.790;2023-01-20T13:36:14;41.55;;;17.23;;
76761;SDS011;65705;51.032;13.790;2023-01-20T13:38:48;38.60;;;16.98;;
76761;SDS011;65705;51.032;13.790;2023-01-20T13:46:58;40.08;;;16.98;;
76761;SDS011;65705;51.032;13.790;2023-01-20T13:49:24;42.58;;;19.38;;
76761;SDS011;65705;51.032;13.790;2023-01-20T13:51:53;60.10;;;25.10;;
76761;SDS011;65705;51.032;13.790;2023-01-20T13:56:47;39.63;;;15.80;;
76761;SDS011;65705;51.032;13.790;2023-01-20T13:59:13;36.30;;;15.73;;
76761;SDS011;65705;51.032;13.790;2023-01-20T14:01:38;42.05;;;15.35;;
76761;SDS011;65705;51.032;13.790;2023-01-20T14:04:05;34.00;;;15.30;;
76761;SDS011;65705;51.032;13.790;2023-01-20T14:06:44;42.00;;;18.02;;
76761;SDS011;65705;51.032;13.790;2023-01-20T14:09:19;39.35;;;15.77;;
76761;SDS011;65705;51.032;13.790;2023-01-20T14:14:20;32.25;;;13.55;;
76761;SDS011;65705;51.032;13.790;2023-01-20T14:16:48;40.88;;;16.67;;
76761;SDS011;65705;51.032;13.790;2023-01-20T14:19:20;36.22;;;16.58;;
76761;SDS011;65705;51.032;13.790;2023-01-20T14:21:49;40.80;;;16.27;;
76761;SDS011;65705;51.032;13.790;2023-01-20T14:24:27;36.60;;;15.30;;
76761;SDS011;65705;51.032;13.790;2023-01-20T14:27:04;36.45;;;16.77;;
76761;SDS011;65705;51.032;13.790;2023-01-20T14:32:15;38.08;;;14.98;;
76761;SDS011;65705;51.032;13.790;2023-01-20T14:34:49;37.63;;;16.08;;
76761;SDS011;65705;51.032;13.790;2023-01-20T14:37:29;39.60;;;16.50;;
76761;SDS011;65705;51.032;13.790;2023-01-20T14:39:58;43.13;;;17.40;;
76761;SDS011;65705;51.032;13.790;2023-01-20T14:42:26;35.42;;;15.98;;
76761;SDS011;65705;51.032;13.790;2023-01-20T14:44:54;34.95;;;14.98;;
76761;SDS011;65705;51.032;13.790;2023-01-20T14:47:21;35.45;;;15.15;;
76761;SDS011;65705;51.032;13.790;2023-01-20T14:49:50;37.92;;;16.35;;
76761;SDS011;65705;51.032;13.790;2023-01-20T14:52:19;39.15;;;16.83;;
76761;SDS011;65705;51.032;13.790;2023-01-20T14:54:49;34.10;;;16.08;;
76761;SDS011;65705;51.032;13.790;2023-01-20T15:02:34;31.50;;;13.45;;
76761;SDS011;65705;51.032;13.790;2023-01-20T15:05:11;33.10;;;14.93;;
76761;SDS011;65705;51.032;13.790;2023-01-20T15:07:43;34.78;;;14.43;;
76761;SDS011;65705;51.032;13.790;2023-01-20T15:10:13;31.20;;;14.57;;
76761;SDS011;65705;51.032;13.790;2023-01-20T15:15:22;34.83;;;16.17;;
76761;SDS011;65705;51.032;13.790;2023-01-20T15:20:54;35.05;;;15.93;;
76761;SDS011;65705;51.032;13.790;2023-01-20T15:23:22;29.50;;;13.88;;
76761;SDS011;65705;51.032;13.790;2023-01-20T15:25:58;38.85;;;14.48;;
76761;SDS011;65705;51.032;13.790;2023-01-20T15:28:42;35.22;;;16.63;;
76761;SDS011;65705;51.032;13.790;2023-01-20T15:31:15;38.90;;;17.73;;
76761;SDS011;65705;51.032;13.790;2023-01-20T15:33:42;34.95;;;15.13;;
76761;SDS011;65705;51.032;13.790;2023-01-20T15:38:46;41.60;;;17.60;;
76761;SDS011;65705;51.032;13.790;2023-01-20T15:41:12;37.47;;;16.92;;
76761;SDS011;65705;51.032;13.790;2023-01-20T15:43:38;42.80;;;16.33;;
76761;SDS011;65705;51.032;13.790;2023-01-20T15:46:12;43.28;;;16.77;;
76761;SDS011;65705;51.032;13.790;2023-01-20T15:48:40;38.75;;;16.95;;
76761;SDS011;65705;51.032;13.790;2023-01-20T15:51:08;40.63;;;16.80;;
76761;SDS011;65705;51.032;13.790;2023-01-20T15:53:37;43.53;;;16.23;;
76761;SDS011;65705;51.032;13.790;2023-01-20T15:56:03;42.33;;;18.25;;
76761;SDS011;65705;51.032;13.790;2023-01-20T15:58:29;40.60;;;16.98;;
76761;SDS011;65705;51.032;13.790;2023-01-20T16:01:00;42.78;;;17.27;;
76761;SDS011;65705;51.032;13.790;2023-01-20T16:03:26;39.50;;;18.58;;
76761;SDS011;65705;51.032;13.790;2023-01-20T16:05:53;46.00;;;19.98;;
76761;SDS011;65705;51.032;13.790;2023-01-20T16:08:21;38.38;;;18.70;;
76761;SDS011;65705;51.032;13.790;2023-01-20T16:10:49;50.95;;;18.75;;
76761;SDS011;65705;51.032;13.790;2023-01-20T16:13:15;45.45;;;18.98;;
76761;SDS011;65705;51.032;13.790;2023-01-20T16:15:41;40.47;;;16.73;;
76761;SDS011;65705;51.032;13.790;2023-01-20T16:18:11;37.97;;;16.35;;
76761;SDS011;65705;51.032;13.790;2023-01-20T16:20:39;35.28;;;16.45;;
76761;SDS011;65705;51.032;13.790;2023-01-20T16:23:05;39.63;;;17.00;;
76761;SDS011;65705;51.032;13.790;2023-01-20T16:25:31;39.47;;;17.23;;
76761;SDS011;65705;51.032;13.790;2023-01-20T16:27:57;37.00;;;16.35;;
76761;SDS011;65705;51.032;13.790;2023-01-20T16:30:23;38.97;;;16.48;;
76761;SDS011;65705;51.032;13.790;2023-01-20T16:32:50;38.75;;;17.58;;
76761;SDS011;65705;51.032;13.790;2023-01-20T16:35:16;46.47;;;17.95;;
76761;SDS011;65705;51.032;13.790;2023-01-20T16:37:44;45.63;;;17.90;;
76761;SDS011;65705;51.032;13.790;2023-01-20T16:40:20;46.42;;;16.15;;
76761;SDS011;65705;51.032;13.790;2023-01-20T16:42:46;43.72;;;18.40;;
76761;SDS011;65705;51.032;13.790;2023-01-20T16:45:30;43.45;;;17.02;;
76761;SDS011;65705;51.032;13.790;2023-01-20T16:50:21;39.10;;;15.10;;
76761;SDS011;65705;51.032;13.790;2023-01-20T16:52:47;38.40;;;16.85;;
76761;SDS011;65705;51.032;13.790;2023-01-20T16:55:13;39.75;;;16.52;;
76761;SDS011;65705;51.032;13.790;2023-01-20T16:57:39;40.10;;;16.02;;
76761;SDS011;65705;51.032;13.790;2023-01-20T17:00:05;42.75;;;17.00;;
76761;SDS011;65705;51.032;13.790;2023-01-20T17:02:32;34.97;;;14.90;;
76761;SDS011;65705;51.032;13.790;2023-01-20T17:05:04;38.90;;;14.48;;
76761;SDS011;65705;51.032;13.790;2023-01-20T17:07:31;37.35;;;15.57;;
76761;SDS011;65705;51.032;13.790;2023-01-20T17:09:57;31.65;;;13.48;;